createdAt,value
2023-05-06T00:01:19.655Z,98383.14
2023-05-06T00:04:21.512Z,98385.95
2023-05-06T00:07:23.216Z,98382.61
2023-05-06T00:10:25.253Z,98383.27
2023-05-06T00:13:26.936Z,98382.04
2023-05-06T00:16:28.705Z,98382.29
2023-05-06T00:19:30.657Z,98378.68
2023-05-06T00:22:32.433Z,98373.25
2023-05-06T00:25:34.153Z,98373.60
2023-05-06T00:28:35.934Z,98372.20
2023-05-06T00:31:37.770Z,98374.61
2023-05-06T00:34:39.693Z,98370.30
2023-05-06T00:37:45.921Z,98370.06
2023-05-06T00:40:48.126Z,98366.58
2023-05-06T00:43:49.944Z,98365.44
2023-05-06T00:46:51.669Z,98365.24
2023-05-06T00:49:53.679Z,98362.27
2023-05-06T00:52:57.677Z,98364.27
2023-05-06T00:55:59.720Z,98360.39
2023-05-06T00:59:01.711Z,98356.17
2023-05-06T01:02:03.853Z,98360.54
2023-05-06T01:05:06.108Z,98358.21
2023-05-06T01:08:19.023Z,98360.79
2023-05-06T01:11:37.724Z,98359.87
2023-05-06T01:14:49.364Z,98361.15
2023-05-06T01:17:52.842Z,98356.27
2023-05-06T01:20:55.994Z,98357.39
2023-05-06T01:23:58.415Z,98358.68
2023-05-06T01:27:00.796Z,98353.10
2023-05-06T01:30:03.241Z,98349.39
2023-05-06T01:33:15.889Z,98354.77
2023-05-06T01:36:29.726Z,98353.68
2023-05-06T01:39:32.860Z,98355.69
2023-05-06T01:42:37.529Z,98348.69
2023-05-06T01:45:40.633Z,98342.61
2023-05-06T01:48:42.663Z,98337.96
2023-05-06T01:51:48.375Z,98333.63
2023-05-06T01:54:50.057Z,98332.21
2023-05-06T01:57:52.440Z,98330.64
2023-05-06T02:00:54.158Z,98329.63
2023-05-06T02:03:56.078Z,98327.64
2023-05-06T02:06:58.283Z,98322.76
2023-05-06T02:10:00.096Z,98320.96
2023-05-06T02:13:02.232Z,98322.33
2023-05-06T02:16:04.738Z,98317.15
2023-05-06T02:19:07.114Z,98311.39
2023-05-06T02:22:08.836Z,98310.45
2023-05-06T02:25:10.710Z,98305.73
2023-05-06T02:28:12.659Z,98306.06
2023-05-06T02:31:15.260Z,98308.98
2023-05-06T02:34:17.106Z,98305.05
2023-05-06T02:37:18.796Z,98306.23
2023-05-06T02:40:20.722Z,98312.25
2023-05-06T02:43:22.509Z,98312.80
2023-05-06T02:46:24.194Z,98315.43
2023-05-06T02:49:26.915Z,98316.63
2023-05-06T02:52:28.647Z,98314.91
2023-05-06T02:55:30.349Z,98314.90
2023-05-06T02:58:32.080Z,98308.92
2023-05-06T03:01:33.923Z,98308.89
2023-05-06T03:04:35.723Z,98307.27
2023-05-06T03:07:38.777Z,98310.48
2023-05-06T03:10:40.780Z,98308.44
2023-05-06T03:13:42.616Z,98312.61
2023-05-06T03:16:44.400Z,98311.44
2023-05-06T03:19:48.925Z,98317.69
2023-05-06T03:22:51.443Z,98311.16
2023-05-06T03:25:53.715Z,98307.36
2023-05-06T03:28:55.930Z,98309.51
2023-05-06T03:31:58.056Z,98305.64
2023-05-06T03:35:01.006Z,98307.86
2023-05-06T03:38:03.090Z,98309.13
2023-05-06T03:41:17.494Z,98306.13
2023-05-06T03:44:20.575Z,98302.42
2023-05-06T03:47:22.534Z,98302.69
2023-05-06T03:50:24.533Z,98306.23
2023-05-06T03:53:28.141Z,98308.91
2023-05-06T03:56:30.071Z,98311.11
2023-05-06T03:59:32.235Z,98310.63
2023-05-06T04:02:35.505Z,98312.82
2023-05-06T04:05:37.802Z,98316.48
2023-05-06T04:08:40.069Z,98319.30
2023-05-06T04:11:41.794Z,98316.87
2023-05-06T04:14:44.746Z,98315.90
2023-05-06T04:17:47.060Z,98316.91
2023-05-06T04:20:49.639Z,98316.81
2023-05-06T04:23:51.716Z,98312.39
2023-05-06T04:26:56.887Z,98312.00
2023-05-06T04:29:58.865Z,98310.65
2023-05-06T04:33:02.183Z,98311.19
2023-05-06T04:36:05.147Z,98307.05
2023-05-06T04:39:08.055Z,98306.80
2023-05-06T04:42:09.929Z,98304.52
2023-05-06T04:45:18.481Z,98299.06
2023-05-06T04:48:22.422Z,98291.95
2023-05-06T04:51:24.420Z,98290.30
2023-05-06T04:54:26.378Z,98286.61
2023-05-06T04:57:29.076Z,98280.83
2023-05-06T05:00:31.590Z,98276.31
2023-05-06T05:03:33.861Z,98276.73
2023-05-06T05:06:36.682Z,98274.28
2023-05-06T05:09:39.143Z,98278.13
2023-05-06T05:12:41.704Z,98273.77
2023-05-06T05:15:43.644Z,98277.70
2023-05-06T05:18:45.628Z,98278.21
2023-05-06T05:21:51.659Z,98278.10
2023-05-06T05:24:53.422Z,98281.25
2023-05-06T05:27:55.441Z,98280.98
2023-05-06T05:31:04.574Z,98280.34
2023-05-06T05:34:08.594Z,98273.98
2023-05-06T05:37:11.554Z,98267.95
2023-05-06T05:40:13.766Z,98270.61
2023-05-06T05:43:16.130Z,98258.52
2023-05-06T05:46:18.158Z,98252.00
2023-05-06T05:49:21.320Z,98252.48
2023-05-06T05:52:23.802Z,98251.91
2023-05-06T05:55:26.008Z,98253.60
2023-05-06T05:58:27.905Z,98255.09
2023-05-06T06:01:31.340Z,98245.63
2023-05-06T06:04:33.349Z,98235.42
2023-05-06T06:07:35.218Z,98230.64
2023-05-06T06:10:37.004Z,98233.61
2023-05-06T06:13:42.511Z,98235.65
2023-05-06T06:16:44.341Z,98240.15
2023-05-06T06:19:46.686Z,98242.13
2023-05-06T06:22:48.615Z,98240.60
2023-05-06T06:25:51.370Z,98244.39
2023-05-06T06:28:53.084Z,98247.38
2023-05-06T06:31:57.764Z,98247.11
2023-05-06T06:34:59.453Z,98244.23
2023-05-06T06:38:02.274Z,98237.47
2023-05-06T06:41:04.123Z,98238.44
2023-05-06T06:44:05.892Z,98236.96
2023-05-06T06:47:07.651Z,98234.84
2023-05-06T06:50:09.886Z,98235.48
2023-05-06T06:53:11.506Z,98229.75
2023-05-06T06:56:13.256Z,98232.23
2023-05-06T06:59:15.153Z,98227.30
2023-05-06T07:02:16.886Z,98217.16
2023-05-06T07:05:19.003Z,98214.52
2023-05-06T07:08:21.713Z,98211.10
2023-05-06T07:11:23.417Z,98207.10
2023-05-06T07:14:25.355Z,98202.29
2023-05-06T07:17:27.084Z,98191.55
2023-05-06T07:20:28.863Z,98188.15
2023-05-06T07:23:32.132Z,98187.63
2023-05-06T07:26:37.446Z,98188.80
2023-05-06T07:29:39.267Z,98191.91
2023-05-06T07:32:41.185Z,98189.64
2023-05-06T07:35:43.105Z,98187.98
2023-05-06T07:38:44.906Z,98184.52
2023-05-06T07:41:46.572Z,98185.02
2023-05-06T07:44:48.236Z,98185.39
2023-05-06T07:47:50.591Z,98180.94
2023-05-06T07:50:52.491Z,98181.22
2023-05-06T07:53:54.236Z,98187.28
2023-05-06T07:56:55.954Z,98191.30
2023-05-06T07:59:57.962Z,98188.16
2023-05-06T08:03:00.723Z,98187.84
2023-05-06T08:06:02.691Z,98182.39
2023-05-06T08:09:04.736Z,98177.25
2023-05-06T08:12:06.729Z,98174.73
2023-05-06T08:15:09.508Z,98174.31
2023-05-06T08:18:21.629Z,98171.56
2023-05-06T08:21:24.486Z,98171.73
2023-05-06T08:24:26.326Z,98169.91
2023-05-06T08:27:28.077Z,98170.36
2023-05-06T08:30:30.115Z,98166.77
2023-05-06T08:33:31.951Z,98167.95
2023-05-06T08:36:33.684Z,98164.01
2023-05-06T08:39:35.582Z,98164.49
2023-05-06T08:42:38.393Z,98170.28
2023-05-06T08:45:41.687Z,98167.02
2023-05-06T08:48:43.520Z,98174.65
2023-05-06T08:51:46.019Z,98169.56
2023-05-06T08:54:52.831Z,98158.49
2023-05-06T08:57:55.705Z,98159.05
2023-05-06T09:00:58.330Z,98151.61
2023-05-06T09:04:00.834Z,98154.27
2023-05-06T09:07:02.529Z,98170.26
2023-05-06T09:10:14.053Z,98168.09
2023-05-06T09:13:17.794Z,98159.20
2023-05-06T09:16:30.013Z,98149.48
2023-05-06T09:19:31.868Z,98150.23
2023-05-06T09:22:36.483Z,98140.94
2023-05-06T09:25:38.302Z,98134.80
2023-05-06T09:28:46.246Z,98141.13
2023-05-06T09:31:48.069Z,98148.42
2023-05-06T09:34:49.831Z,98154.16
2023-05-06T09:37:51.624Z,98157.93
2023-05-06T09:40:53.660Z,98162.64
2023-05-06T09:43:56.181Z,98172.33
2023-05-06T09:46:58.625Z,98186.55
2023-05-06T09:50:03.957Z,98185.99
2023-05-06T09:53:06.755Z,98187.95
2023-05-06T09:56:08.713Z,98188.63
2023-05-06T09:59:11.420Z,98191.41
2023-05-06T10:02:13.590Z,98188.07
2023-05-06T10:05:16.399Z,98184.98
2023-05-06T10:08:18.848Z,98184.86
2023-05-06T10:11:20.831Z,98179.92
2023-05-06T10:14:22.781Z,98176.27
2023-05-06T10:17:25.239Z,98175.05
2023-05-06T10:20:30.484Z,98172.84
2023-05-06T10:23:43.919Z,98171.52
2023-05-06T10:26:48.369Z,98164.85
2023-05-06T10:29:53.250Z,98161.86
2023-05-06T10:32:58.935Z,98152.14
2023-05-06T10:36:06.919Z,98144.42
2023-05-06T10:39:12.999Z,98141.59
2023-05-06T10:42:16.276Z,98140.66
2023-05-06T10:45:17.936Z,98134.67
2023-05-06T10:48:19.634Z,98126.22
2023-05-06T10:51:23.391Z,98130.97
2023-05-06T10:54:25.313Z,98124.74
2023-05-06T10:57:39.942Z,98130.70
2023-05-06T11:00:52.162Z,98131.77
2023-05-06T11:03:54.428Z,98116.83
2023-05-06T11:07:06.523Z,98112.71
2023-05-06T11:10:10.748Z,98106.45
2023-05-06T11:13:26.963Z,98101.56
2023-05-06T11:17:02.291Z,98104.97
2023-05-06T11:20:19.538Z,98105.79
2023-05-06T11:23:21.238Z,98103.73
2023-05-06T11:26:23.785Z,98108.73
2023-05-06T11:29:26.424Z,98112.09
2023-05-06T11:32:29.059Z,98120.90
2023-05-06T11:35:37.034Z,98117.20
2023-05-06T11:38:55.803Z,98122.60
2023-05-06T11:49:20.366Z,98122.44
2023-05-06T12:50:02.924Z,98152.96
2023-05-06T13:05:27.885Z,98146.95
2023-05-06T13:08:31.011Z,98150.98
2023-05-06T13:11:33.958Z,98152.36
2023-05-06T13:14:39.885Z,98156.95
2023-05-06T13:17:43.528Z,98156.02
2023-05-06T13:20:46.539Z,98155.29
2023-05-06T13:23:49.579Z,98149.36
2023-05-06T13:26:52.716Z,98136.48
2023-05-06T13:29:55.731Z,98139.13
2023-05-06T13:32:58.778Z,98129.98
2023-05-06T13:36:04.005Z,98140.05
2023-05-06T13:39:08.851Z,98141.11
2023-05-06T13:42:13.817Z,98138.16
2023-05-06T13:45:16.960Z,98144.98
2023-05-06T13:48:20.035Z,98143.95
2023-05-06T13:51:23.150Z,98144.64
2023-05-06T13:54:26.277Z,98142.85
2023-05-06T13:57:29.319Z,98144.46
2023-05-06T14:00:32.578Z,98140.61
2023-05-06T14:03:35.738Z,98137.83
2023-05-06T14:06:38.882Z,98139.14
2023-05-06T14:09:41.919Z,98137.98
2023-05-06T14:12:45.033Z,98137.95
2023-05-06T14:15:48.409Z,98139.23
2023-05-06T14:18:52.267Z,98140.11
2023-05-06T14:21:55.772Z,98138.45
2023-05-06T14:24:58.841Z,98138.85
2023-05-06T14:28:01.930Z,98140.11
2023-05-06T14:31:05.138Z,98140.89
2023-05-06T14:34:08.313Z,98136.46
2023-05-06T14:37:11.526Z,98128.19
2023-05-06T14:40:15.787Z,98129.53
2023-05-06T14:43:19.192Z,98125.83
2023-05-06T14:46:22.207Z,98126.45
2023-05-06T14:49:25.435Z,98129.79
2023-05-06T14:52:28.531Z,98133.73
2023-05-06T14:55:31.592Z,98130.42
2023-05-06T14:58:34.607Z,98131.45
2023-05-06T15:01:37.778Z,98129.61
2023-05-06T15:04:40.882Z,98130.14
2023-05-06T15:07:43.892Z,98124.25
2023-05-06T15:10:49.178Z,98128.06
2023-05-06T15:13:52.191Z,98130.56
2023-05-06T15:16:57.025Z,98137.05
2023-05-06T15:20:00.680Z,98140.48
2023-05-06T15:23:03.717Z,98141.95
2023-05-06T15:26:06.783Z,98142.41
2023-05-06T15:29:09.754Z,98150.88
2023-05-06T15:32:12.709Z,98152.78
2023-05-06T15:35:15.846Z,98145.80
2023-05-06T15:38:18.775Z,98144.64
2023-05-06T15:41:24.811Z,98151.69
2023-05-06T15:44:27.937Z,98153.63
2023-05-06T15:47:31.284Z,98154.16
2023-05-06T15:50:36.371Z,98152.81
2023-05-06T15:53:40.197Z,98151.94
2023-05-06T15:56:43.211Z,98156.36
2023-05-06T15:59:46.320Z,98153.98
2023-05-06T16:02:49.568Z,98154.95
2023-05-06T16:05:54.303Z,98150.42
2023-05-06T16:08:58.413Z,98148.14
2023-05-06T16:12:03.305Z,98156.98
2023-05-06T16:15:06.842Z,98164.19
2023-05-06T16:18:10.806Z,98170.39
2023-05-06T16:21:14.042Z,98170.84
2023-05-06T16:24:17.187Z,98165.40
2023-05-06T16:27:23.637Z,98157.77
2023-05-06T16:30:30.057Z,98153.67
2023-05-06T16:33:33.136Z,98161.95
2023-05-06T16:36:36.141Z,98162.95
2023-05-06T16:39:39.240Z,98161.34
2023-05-06T16:42:42.305Z,98163.80
2023-05-06T16:45:45.846Z,98170.84
2023-05-06T16:48:48.874Z,98167.55
2023-05-06T16:51:54.755Z,98168.06
2023-05-06T16:54:57.943Z,98170.77
2023-05-06T16:58:02.142Z,98172.99
2023-05-06T17:01:08.023Z,98176.64
2023-05-06T17:04:11.164Z,98172.15
2023-05-06T17:07:14.162Z,98174.23
2023-05-06T17:10:17.249Z,98176.70
2023-05-06T17:13:20.360Z,98171.42
2023-05-06T17:16:23.373Z,98170.13
2023-05-06T17:19:26.505Z,98172.51
2023-05-06T17:22:29.534Z,98171.90
2023-05-06T17:25:32.565Z,98169.64
2023-05-06T17:28:35.546Z,98166.10
2023-05-06T17:31:38.529Z,98165.17
2023-05-06T17:34:41.511Z,98166.09
2023-05-06T17:37:44.525Z,98164.30
2023-05-06T17:40:47.515Z,98164.82
2023-05-06T17:43:51.035Z,98169.65
2023-05-06T17:46:54.219Z,98171.77
2023-05-06T17:49:57.721Z,98177.67
2023-05-06T17:53:00.789Z,98182.99
2023-05-06T17:56:03.986Z,98183.35
2023-05-06T17:59:07.513Z,98185.69
2023-05-06T18:02:13.933Z,98184.38
2023-05-06T18:05:17.582Z,98186.78
2023-05-06T18:08:20.852Z,98192.80
2023-05-06T18:11:24.290Z,98199.87
2023-05-06T18:14:27.511Z,98198.70
2023-05-06T18:17:30.656Z,98201.33
2023-05-06T18:20:33.716Z,98200.79
2023-05-06T18:23:36.726Z,98198.75
2023-05-06T18:26:48.444Z,98209.51
2023-05-06T18:29:51.665Z,98214.44
2023-05-06T18:32:58.054Z,98218.16
2023-05-06T18:36:15.013Z,98222.28
2023-05-06T18:39:18.049Z,98226.54
2023-05-06T18:42:23.708Z,98232.96
2023-05-06T18:45:26.813Z,98236.98
2023-05-06T18:48:32.008Z,98239.05
2023-05-06T18:51:35.009Z,98240.17
2023-05-06T18:54:39.591Z,98241.55
2023-05-06T18:57:43.322Z,98243.86
2023-05-06T19:00:46.411Z,98248.30
2023-05-06T19:03:49.465Z,98243.34
2023-05-06T19:06:52.663Z,98250.45
2023-05-06T19:09:55.975Z,98249.97
2023-05-06T19:12:59.400Z,98248.42
2023-05-06T19:16:02.441Z,98250.70
2023-05-06T19:19:08.293Z,98251.36
2023-05-06T19:22:11.331Z,98257.20
2023-05-06T19:25:14.374Z,98258.55
2023-05-06T19:28:17.338Z,98255.27
2023-05-06T19:31:20.566Z,98254.02
2023-05-06T19:34:23.647Z,98254.67
2023-05-06T19:37:30.145Z,98255.38
2023-05-06T19:40:34.836Z,98249.57
2023-05-06T19:43:42.995Z,98248.39
2023-05-06T19:46:46.150Z,98253.83
2023-05-06T19:49:51.261Z,98249.58
2023-05-06T19:52:54.411Z,98253.55
2023-05-06T19:56:00.347Z,98248.04
2023-05-06T19:59:03.425Z,98255.62
2023-05-06T20:02:06.538Z,98257.76
2023-05-06T20:05:10.658Z,98259.73
2023-05-06T20:08:13.846Z,98260.92
2023-05-06T20:11:16.828Z,98259.75
2023-05-06T20:14:19.785Z,98251.95
2023-05-06T20:17:23.652Z,98253.39
2023-05-06T20:20:34.123Z,98256.55
2023-05-06T20:23:37.187Z,98257.99
2023-05-06T20:26:40.905Z,98258.31
2023-05-06T20:29:43.936Z,98263.29
2023-05-06T20:32:47.972Z,98266.78
2023-05-06T20:35:52.374Z,98273.17
2023-05-06T20:38:55.346Z,98276.80
2023-05-06T20:41:58.490Z,98278.57
2023-05-06T20:45:02.127Z,98282.11
2023-05-06T20:48:05.292Z,98281.48
2023-05-06T20:51:08.327Z,98281.98
2023-05-06T20:54:11.381Z,98283.16
2023-05-06T20:57:16.290Z,98287.04
2023-05-06T21:00:19.650Z,98290.98
2023-05-06T21:03:24.064Z,98292.34
2023-05-06T21:06:27.192Z,98292.17
2023-05-06T21:09:30.418Z,98293.59
2023-05-06T21:12:33.813Z,98296.08
2023-05-06T21:15:37.716Z,98296.95
2023-05-06T21:18:40.792Z,98298.63
2023-05-06T21:21:43.896Z,98301.00
2023-05-06T21:24:46.864Z,98304.17
2023-05-06T21:27:49.988Z,98310.58
2023-05-06T21:33:41.786Z,98311.30
2023-05-06T21:36:44.803Z,98315.45
2023-05-06T21:39:47.789Z,98316.02
2023-05-06T21:42:51.642Z,98314.40
2023-05-06T21:45:54.807Z,98319.95
2023-05-06T21:48:58.470Z,98323.05
2023-05-06T21:52:01.515Z,98326.23
2023-05-06T21:55:05.096Z,98335.08
2023-05-06T21:58:08.090Z,98339.39
2023-05-06T22:01:11.535Z,98341.44
2023-05-06T22:04:16.214Z,98339.11
2023-05-06T22:07:19.158Z,98335.13
2023-05-06T22:10:22.289Z,98341.13
2023-05-06T22:13:26.723Z,98340.14
2023-05-06T22:16:30.083Z,98333.63
2023-05-06T22:19:33.097Z,98337.27
2023-05-06T22:22:37.133Z,98338.73
2023-05-06T22:25:40.165Z,98341.27
2023-05-06T22:28:43.195Z,98335.08
2023-05-06T22:31:46.269Z,98333.67
2023-05-06T22:34:49.444Z,98334.88
2023-05-06T22:37:52.414Z,98337.17
2023-05-06T22:40:55.453Z,98336.01
2023-05-06T22:43:59.745Z,98335.94
2023-05-06T22:47:02.715Z,98338.23
2023-05-06T22:50:06.807Z,98339.27
2023-05-06T22:53:14.968Z,98348.26
2023-05-06T22:56:19.902Z,98351.10
2023-05-06T22:59:23.279Z,98357.57
2023-05-06T23:02:26.574Z,98359.31
2023-05-06T23:05:29.639Z,98362.31
2023-05-06T23:08:32.591Z,98363.51
2023-05-06T23:11:35.784Z,98359.42
2023-05-06T23:14:38.822Z,98365.90
2023-05-06T23:17:42.013Z,98365.27
2023-05-06T23:20:44.946Z,98365.91
2023-05-06T23:23:48.010Z,98368.13
2023-05-06T23:26:51.991Z,98370.05
2023-05-06T23:29:54.978Z,98366.44
2023-05-06T23:32:58.068Z,98364.70
2023-05-06T23:36:02.442Z,98359.14
2023-05-06T23:39:05.420Z,98360.48
2023-05-06T23:42:08.453Z,98362.77
2023-05-06T23:45:12.033Z,98361.59
2023-05-06T23:48:15.272Z,98360.98
2023-05-06T23:51:18.413Z,98364.45
2023-05-06T23:54:21.494Z,98365.64
2023-05-06T23:57:24.519Z,98369.73
